Time;durP1;ratioP1;P1;durP2;ratioP2;P2;SDS_P1;SDS_P2;PMS_P1;PMS_P2;Temp;Humidity;BMP_temperature;BMP_pressure;BME280_temperature;BME280_humidity;BME280_pressure;Samples;Min_cycle;Max_cycle;Signal;HPM_P1;HPM_P2
2022/05/02 00:00:56;;;;;;;47.90;29.92;;;10.50;99.90;;;;;;5014356;28;20038;-52
2022/05/02 00:03:22;;;;;;;45.75;28.80;;;10.50;99.90;;;;;;5014736;28;20044;-52
2022/05/02 00:05:48;;;;;;;56.67;31.85;;;10.50;99.90;;;;;;5014766;28;20602;-52
2022/05/02 00:08:14;;;;;;;46.33;27.95;;;10.50;99.90;;;;;;5014534;28;20057;-52
2022/05/02 00:10:40;;;;;;;65.90;36.20;;;10.50;99.90;;;;;;5014729;28;20038;-52
2022/05/02 00:13:07;;;;;;;57.85;34.35;;;10.50;99.90;;;;;;5014458;28;20049;-52
2022/05/02 00:15:33;;;;;;;59.50;35.53;;;10.50;99.90;;;;;;5014400;28;20468;-52
2022/05/02 00:17:59;;;;;;;61.10;33.72;;;10.50;99.90;;;;;;5014574;28;20045;-52
2022/05/02 00:20:27;;;;;;;55.95;31.77;;;10.50;99.90;;;;;;5014456;28;20038;-52
2022/05/02 00:22:54;;;;;;;51.70;31.30;;;10.60;99.90;;;;;;5014371;28;20030;-52
2022/05/02 00:25:20;;;;;;;39.47;25.80;;;10.60;99.90;;;;;;5014884;28;20109;-52
2022/05/02 00:27:47;;;;;;;40.38;25.25;;;10.60;99.90;;;;;;5014420;28;20025;-52
2022/05/02 00:30:14;;;;;;;39.58;26.23;;;10.40;99.90;;;;;;5014165;28;20514;-52
2022/05/02 00:32:40;;;;;;;43.75;25.13;;;10.40;99.90;;;;;;5014696;28;20029;-52
2022/05/02 00:35:08;;;;;;;46.13;27.27;;;10.40;99.90;;;;;;5014440;28;20038;-52
2022/05/02 00:37:34;;;;;;;49.45;27.35;;;10.40;99.90;;;;;;5016952;28;20108;-52
2022/05/02 00:40:00;;;;;;;45.35;28.38;;;10.40;99.90;;;;;;5018234;28;20213;-53
2022/05/02 00:42:26;;;;;;;52.47;27.83;;;10.40;99.90;;;;;;5018026;28;20419;-52
2022/05/02 00:44:52;;;;;;;44.17;26.27;;;10.30;99.90;;;;;;5018372;28;20022;-52
2022/05/02 00:47:20;;;;;;;41.83;26.55;;;10.40;99.90;;;;;;5018157;28;20503;-52
2022/05/02 00:49:50;;;;;;;45.40;27.65;;;10.40;99.90;;;;;;5018109;28;20018;-52
2022/05/02 00:52:18;;;;;;;42.38;24.27;;;10.40;99.90;;;;;;5018134;28;20041;-52
2022/05/02 00:54:45;;;;;;;36.70;24.85;;;10.30;99.90;;;;;;5017993;28;20018;-52
2022/05/02 00:57:12;;;;;;;43.78;25.73;;;10.40;99.90;;;;;;5018119;28;20061;-52
2022/05/02 00:59:39;;;;;;;44.33;26.17;;;10.40;99.90;;;;;;5016627;28;20038;-52
2022/05/02 01:02:07;;;;;;;40.35;24.23;;;10.30;99.90;;;;;;5017766;28;20084;-52
2022/05/02 01:04:34;;;;;;;44.03;25.60;;;10.30;99.90;;;;;;5018127;28;20026;-52
2022/05/02 01:10:00;;;;;;;39.35;24.88;;;10.30;99.90;;;;;;5005530;28;20042;-52
2022/05/02 01:12:26;;;;;;;42.45;26.05;;;10.30;99.90;;;;;;5017627;28;20478;-52
2022/05/02 01:14:54;;;;;;;49.13;26.25;;;10.20;99.90;;;;;;5017684;28;20022;-52
2022/05/02 01:17:21;;;;;;;37.67;24.13;;;10.20;99.90;;;;;;5017497;28;20080;-52
2022/05/02 01:19:47;;;;;;;41.92;26.52;;;10.20;99.90;;;;;;5017805;28;20037;-52
2022/05/02 01:22:13;;;;;;;43.30;27.70;;;10.20;99.90;;;;;;5017398;28;20105;-52
2022/05/02 01:24:44;;;;;;;45.15;27.27;;;10.20;99.90;;;;;;5017413;28;20025;-52
2022/05/02 01:27:11;;;;;;;;;;;10.30;99.90;;;;;;5017804;28;20037;-52
2022/05/02 01:29:38;;;;;;;45.72;26.30;;;10.20;99.90;;;;;;5017240;28;19913;-52
2022/05/02 01:32:07;;;;;;;45.97;27.40;;;10.30;99.90;;;;;;5017339;28;20264;-52
2022/05/02 01:34:34;;;;;;;50.33;29.08;;;10.30;99.90;;;;;;5017269;28;20054;-52
2022/05/02 01:37:01;;;;;;;51.92;27.63;;;10.20;99.90;;;;;;5017256;28;20030;-52
2022/05/02 01:39:28;;;;;;;49.55;27.35;;;10.20;99.90;;;;;;5017176;28;20040;-52
2022/05/02 01:41:55;;;;;;;40.92;24.20;;;10.20;99.90;;;;;;5017014;28;20472;-52
2022/05/02 01:44:20;;;;;;;38.75;24.13;;;10.20;99.90;;;;;;5017082;28;20022;-52
2022/05/02 01:46:46;;;;;;;38.65;23.40;;;10.20;99.90;;;;;;5017044;28;20134;-52
2022/05/02 01:49:12;;;;;;;40.45;24.30;;;10.20;99.90;;;;;;5016868;28;20091;-52
2022/05/02 01:51:39;;;;;;;40.15;24.38;;;10.20;99.90;;;;;;5017195;28;20026;-52
2022/05/02 01:54:05;;;;;;;40.15;25.27;;;10.10;99.90;;;;;;5017028;28;20113;-52
2022/05/02 01:56:31;;;;;;;44.40;24.77;;;10.10;99.90;;;;;;5016872;28;20049;-52
2022/05/02 01:58:57;;;;;;;39.05;22.67;;;10.10;99.90;;;;;;5016781;28;20033;-52
2022/05/02 02:01:23;;;;;;;40.65;23.20;;;10.10;99.90;;;;;;5015417;28;20046;-52
2022/05/02 02:03:49;;;;;;;36.58;23.05;;;10.10;99.90;;;;;;5016732;28;20098;-52
2022/05/02 02:06:15;;;;;;;34.65;22.30;;;10.00;99.90;;;;;;5015477;28;20479;-52
2022/05/02 02:08:41;;;;;;;35.97;22.90;;;10.00;99.90;;;;;;5016588;28;20499;-52
2022/05/02 02:11:09;;;;;;;47.55;24.73;;;10.10;99.90;;;;;;5016620;28;20033;-53
2022/05/02 02:13:36;;;;;;;43.65;23.77;;;10.00;99.90;;;;;;5016638;28;20026;-52
2022/05/02 02:16:07;;;;;;;40.95;22.85;;;10.00;99.90;;;;;;5016496;28;20427;-52
2022/05/02 02:18:34;;;;;;;36.88;22.45;;;10.00;99.90;;;;;;5016599;28;20480;-52
2022/05/02 02:21:00;;;;;;;40.65;23.98;;;10.00;99.90;;;;;;5016332;28;20069;-52
2022/05/02 02:23:26;;;;;;;44.15;26.70;;;10.00;99.90;;;;;;5016352;28;20487;-52
2022/05/02 02:25:52;;;;;;;48.45;28.27;;;10.00;99.90;;;;;;5016415;28;20021;-52
2022/05/02 02:28:19;;;;;;;46.65;29.05;;;10.00;99.90;;;;;;5016288;28;20030;-52
2022/05/02 02:30:45;;;;;;;57.88;30.60;;;10.00;99.90;;;;;;5016110;28;20438;-52
2022/05/02 02:33:12;;;;;;;47.10;29.98;;;10.00;99.90;;;;;;5016229;28;20076;-52
2022/05/02 02:35:38;;;;;;;53.88;32.03;;;10.00;99.90;;;;;;5016223;28;20034;-52
2022/05/02 02:38:04;;;;;;;53.90;33.25;;;10.00;99.90;;;;;;5016005;28;20092;-52
2022/05/02 02:40:31;;;;;;;52.40;32.05;;;10.00;99.90;;;;;;5015944;28;20053;-52
2022/05/02 02:42:57;;;;;;;47.95;30.50;;;10.00;99.90;;;;;;5015985;28;20038;-52
2022/05/02 02:45:23;;;;;;;54.97;34.38;;;10.00;99.90;;;;;;5015812;28;20034;-52
2022/05/02 02:47:49;;;;;;;58.33;34.30;;;9.90;99.90;;;;;;5015917;28;20383;-52
2022/05/02 02:50:15;;;;;;;54.10;33.65;;;9.90;99.90;;;;;;5015867;28;20030;-52
2022/05/02 02:52:41;;;;;;;57.92;34.63;;;9.90;99.90;;;;;;5016213;28;20061;-52
2022/05/02 02:55:08;;;;;;;58.90;34.05;;;9.90;99.90;;;;;;5015714;28;20113;-52
2022/05/02 02:57:34;;;;;;;55.10;33.22;;;9.80;99.90;;;;;;5015761;28;20029;-52
2022/05/02 03:00:00;;;;;;;56.88;34.40;;;9.90;99.90;;;;;;5015037;28;20030;-52
2022/05/02 03:02:26;;;;;;;57.13;33.85;;;9.80;99.90;;;;;;5015701;28;20105;-52
2022/05/02 03:07:37;;;;;;;62.13;36.78;;;9.80;99.90;;;;;;5015386;28;20101;-52
2022/05/02 03:10:04;;;;;;;66.78;37.33;;;9.80;99.90;;;;;;5015506;28;20372;-52
2022/05/02 03:12:30;;;;;;;68.72;38.72;;;9.80;99.90;;;;;;5015411;28;20053;-52
2022/05/02 03:14:56;;;;;;;67.97;36.78;;;9.70;99.90;;;;;;5015390;28;20109;-52
2022/05/02 03:17:22;;;;;;;65.97;38.15;;;9.70;99.90;;;;;;5014134;28;20440;-52
2022/05/02 03:19:48;;;;;;;73.00;40.20;;;9.70;99.90;;;;;;5015237;28;20468;-52
2022/05/02 03:22:14;;;;;;;73.75;40.67;;;9.70;99.90;;;;;;5015261;28;20026;-52
2022/05/02 03:24:40;;;;;;;74.50;40.88;;;9.70;99.90;;;;;;5015221;28;20022;-52
2022/05/02 03:27:06;;;;;;;88.85;48.40;;;9.70;99.90;;;;;;5015243;28;20030;-52
2022/05/02 03:29:32;;;;;;;74.57;42.25;;;9.60;99.90;;;;;;5015104;28;20475;-52
2022/05/02 03:31:58;;;;;;;72.50;37.85;;;9.50;99.90;;;;;;5015036;28;20034;-52
2022/05/02 03:34:24;;;;;;;76.32;40.10;;;9.50;99.90;;;;;;5015105;28;20034;-52
2022/05/02 03:36:50;;;;;;;70.90;39.67;;;9.60;99.90;;;;;;5015285;28;20096;-52
2022/05/02 03:39:16;;;;;;;66.82;37.40;;;9.50;99.90;;;;;;5015377;28;20038;-52
2022/05/02 03:41:42;;;;;;;60.03;35.47;;;9.60;99.90;;;;;;5014791;28;20048;-52
2022/05/02 03:44:08;;;;;;;64.15;35.38;;;9.60;99.90;;;;;;5015307;28;20029;-52
2022/05/02 03:46:34;;;;;;;61.20;34.47;;;9.60;99.90;;;;;;5015009;28;20058;-52
2022/05/02 03:49:00;;;;;;;62.50;35.10;;;9.60;99.90;;;;;;5015017;28;20440;-52
2022/05/02 03:51:26;;;;;;;69.57;38.78;;;9.70;99.90;;;;;;5014946;28;20480;-52
2022/05/02 03:53:52;;;;;;;70.95;39.38;;;9.70;99.90;;;;;;5014875;28;20030;-52
2022/05/02 03:56:18;;;;;;;70.13;40.83;;;9.60;99.90;;;;;;5014708;28;20034;-52
2022/05/02 03:58:44;;;;;;;68.68;40.22;;;9.60;99.90;;;;;;5014845;28;20030;-52
2022/05/02 04:01:10;;;;;;;78.93;40.90;;;9.60;99.90;;;;;;5014782;28;20023;-52
2022/05/02 04:03:36;;;;;;;69.50;39.35;;;9.60;99.90;;;;;;5014801;28;20403;-52
2022/05/02 04:06:03;;;;;;;70.75;40.03;;;9.60;99.90;;;;;;5014821;28;20076;-52
2022/05/02 04:08:29;;;;;;;70.22;39.88;;;9.60;99.90;;;;;;5014806;28;20034;-52
2022/05/02 04:10:55;;;;;;;68.32;39.30;;;9.60;99.90;;;;;;5014557;28;20036;-52
2022/05/02 04:13:21;;;;;;;66.93;38.80;;;9.70;99.90;;;;;;5019114;28;20029;-52
2022/05/02 04:15:47;;;;;;;72.32;38.60;;;9.70;99.90;;;;;;5018889;28;20034;-52
2022/05/02 04:18:13;;;;;;;71.00;39.83;;;9.70;99.90;;;;;;5018619;28;20030;-52
2022/05/02 04:20:39;;;;;;;61.75;37.95;;;9.80;99.90;;;;;;5018648;28;20053;-52
2022/05/02 04:23:05;;;;;;;65.22;38.45;;;9.70;99.90;;;;;;5018626;28;20029;-52
2022/05/02 04:25:31;;;;;;;73.95;40.90;;;9.80;99.90;;;;;;5018440;28;20042;-52
2022/05/02 04:27:56;;;;;;;68.53;38.58;;;9.80;99.90;;;;;;5018652;28;20087;-52
2022/05/02 04:30:23;;;;;;;64.25;39.35;;;9.90;99.90;;;;;;5018339;28;20072;-52
2022/05/02 04:32:48;;;;;;;68.05;39.72;;;9.90;99.90;;;;;;5018403;28;20034;-53
2022/05/02 04:35:15;;;;;;;72.57;41.00;;;9.90;99.90;;;;;;5018426;28;20018;-52
2022/05/02 04:37:40;;;;;;;67.35;39.58;;;9.90;99.90;;;;;;5018405;28;20037;-52
2022/05/02 04:40:07;;;;;;;73.38;38.17;;;10.00;99.90;;;;;;5018402;28;20434;-52
2022/05/02 04:42:33;;;;;;;70.88;36.40;;;10.00;99.90;;;;;;5018321;28;20026;-52
2022/05/02 04:44:59;;;;;;;65.65;37.10;;;10.10;99.90;;;;;;5018195;28;20080;-52
2022/05/02 04:47:25;;;;;;;78.95;44.92;;;10.30;99.90;;;;;;5018146;28;20029;-52
2022/05/02 04:49:51;;;;;;;76.32;43.95;;;10.40;99.90;;;;;;5018145;28;20116;-52
2022/05/02 04:52:17;;;;;;;76.97;43.33;;;10.30;99.90;;;;;;5016888;28;20030;-52
2022/05/02 04:54:42;;;;;;;78.60;44.15;;;10.50;99.90;;;;;;5017972;28;20053;-52
2022/05/02 04:57:09;;;;;;;74.10;42.42;;;10.50;99.90;;;;;;5017908;28;20041;-52
2022/05/02 04:59:35;;;;;;;79.25;42.88;;;10.60;99.90;;;;;;5018037;28;20056;-52
2022/05/02 05:02:01;;;;;;;81.05;44.90;;;10.60;99.90;;;;;;5018023;28;20471;-52
2022/05/02 05:04:26;;;;;;;74.60;43.17;;;10.70;99.90;;;;;;5017849;28;20037;-52
2022/05/02 05:06:52;;;;;;;71.20;44.42;;;10.80;99.90;;;;;;5017862;28;20029;-52
2022/05/02 05:09:18;;;;;;;74.60;45.25;;;11.00;99.90;;;;;;5017724;28;20030;-52
2022/05/02 05:12:08;;;;;;;81.13;45.28;;;11.10;99.90;;;;;;5017795;28;20083;-52
2022/05/02 05:18:24;;;;;;;79.85;45.40;;;11.60;99.90;;;;;;5017568;28;20083;-52
2022/05/02 05:21:13;;;;;;;81.45;45.72;;;11.80;99.90;;;;;;5017487;28;20029;-52
2022/05/02 05:24:17;;;;;;;80.32;46.08;;;12.00;99.90;;;;;;5017005;28;20459;-52
2022/05/02 05:27:04;;;;;;;95.80;51.25;;;12.20;99.90;;;;;;5006202;28;20104;-53
2022/05/02 05:29:58;;;;;;;80.38;48.05;;;12.30;99.90;;;;;;5017224;28;20053;-53
2022/05/02 05:32:52;;;;;;;78.90;45.83;;;12.40;99.90;;;;;;5017357;28;20041;-53
2022/05/02 05:35:49;;;;;;;81.43;47.22;;;12.50;99.90;;;;;;5017219;28;20034;-52
2022/05/02 05:38:42;;;;;;;80.88;47.50;;;12.60;99.90;;;;;;5017009;28;20399;-53
2022/05/02 05:41:20;;;;;;;94.32;53.42;;;12.90;99.90;;;;;;5016833;28;20038;-53
2022/05/02 05:43:57;;;;;;;81.75;48.42;;;13.00;99.90;;;;;;5017044;28;20542;-52
2022/05/02 05:46:51;;;;;;;95.25;49.25;;;13.20;99.90;;;;;;5017037;28;20060;-52
2022/05/02 05:49:41;;;;;;;71.03;43.45;;;13.30;99.90;;;;;;5016961;28;20037;-53
2022/05/02 05:52:29;;;;;;;59.03;36.83;;;13.40;99.90;;;;;;5017096;28;20097;-53
2022/05/02 05:55:01;;;;;;;55.78;35.50;;;13.10;99.90;;;;;;5016874;28;20255;-52
2022/05/02 05:57:49;;;;;;;59.60;34.70;;;13.30;99.90;;;;;;5016918;28;20117;-53
2022/05/02 06:00:16;;;;;;;53.47;33.85;;;13.40;99.90;;;;;;5016752;28;20033;-53
2022/05/02 06:02:57;;;;;;;55.33;33.28;;;13.60;99.90;;;;;;5016835;28;20128;-53
2022/05/02 06:05:23;;;;;;;53.03;31.30;;;13.90;99.90;;;;;;5017057;28;20033;-53
2022/05/02 06:07:51;;;;;;;43.53;27.67;;;14.10;99.90;;;;;;5016636;28;20030;-53
2022/05/02 06:10:18;;;;;;;47.00;29.83;;;14.30;99.90;;;;;;5017010;28;20026;-53
2022/05/02 06:12:45;;;;;;;49.10;29.10;;;14.50;99.90;;;;;;5016509;28;20033;-53
2022/05/02 06:20:45;;;;;;;36.55;24.48;;;14.80;99.90;;;;;;5016325;28;20534;-53
2022/05/02 06:23:13;;;;;;;38.20;25.55;;;14.90;99.90;;;;;;5016407;28;20109;-53
2022/05/02 06:25:40;;;;;;;32.83;21.83;;;15.10;99.90;;;;;;5016547;28;20081;-53
2022/05/02 06:28:08;;;;;;;34.95;22.27;;;15.20;99.90;;;;;;5016316;28;20433;-53
2022/05/02 06:30:41;;;;;;;37.53;24.23;;;15.40;99.90;;;;;;5016115;28;20096;-53
2022/05/02 06:33:12;;;;;;;34.40;22.77;;;15.50;99.90;;;;;;5016301;28;20049;-53
2022/05/02 06:36:04;;;;;;;32.25;23.35;;;15.60;99.90;;;;;;5015375;28;20033;-53
2022/05/02 06:38:46;;;;;;;29.33;20.73;;;15.80;99.90;;;;;;5016083;28;20034;-53
2022/05/02 06:41:40;;;;;;;33.30;21.10;;;16.00;99.90;;;;;;5016095;28;20046;-53
2022/05/02 06:44:35;;;;;;;26.77;20.33;;;16.10;99.90;;;;;;5016000;28;20427;-53
2022/05/02 06:47:29;;;;;;;33.20;21.25;;;16.10;99.90;;;;;;5016296;28;20046;-53
2022/05/02 06:49:57;;;;;;;26.75;18.80;;;16.00;99.90;;;;;;5016011;28;20180;-53
2022/05/02 06:52:54;;;;;;;31.30;19.73;;;16.20;99.90;;;;;;5015830;28;20371;-53
2022/05/02 06:55:35;;;;;;;27.38;20.17;;;16.40;99.90;;;;;;5015398;28;20069;-53
2022/05/02 06:58:13;;;;;;;28.48;19.42;;;16.30;99.90;;;;;;5015749;28;20050;-53
2022/05/02 07:01:02;;;;;;;28.67;19.25;;;16.50;99.90;;;;;;5015626;28;20053;-53
2022/05/02 07:04:11;;;;;;;25.30;18.83;;;16.70;99.90;;;;;;5004200;28;20415;-53
2022/05/02 07:06:40;;;;;;;27.17;19.38;;;17.10;99.90;;;;;;5005346;28;20113;-53
2022/05/02 07:09:11;;;;;;;23.90;17.92;;;17.20;99.90;;;;;;5015378;28;20057;-53
2022/05/02 07:12:01;;;;;;;27.13;19.63;;;17.40;99.90;;;;;;5015601;28;20050;-53
2022/05/02 07:14:53;;;;;;;25.38;18.77;;;17.40;99.90;;;;;;5015549;28;20069;-53
2022/05/02 07:17:33;;;;;;;25.88;19.48;;;17.40;99.90;;;;;;5015402;28;20518;-53
2022/05/02 07:20:05;;;;;;;28.05;19.75;;;17.60;99.90;;;;;;5015282;28;20088;-53
2022/05/02 07:22:43;;;;;;;26.73;19.30;;;17.80;99.90;;;;;;5015179;28;20053;-53
2022/05/02 07:25:14;;;;;;;26.20;17.88;;;18.00;99.90;;;;;;5015294;28;20080;-53
2022/05/02 07:27:52;;;;;;;26.00;17.20;;;18.10;99.90;;;;;;5015367;28;20423;-53
2022/05/02 07:30:22;;;;;;;24.05;16.25;;;18.40;99.90;;;;;;5015141;28;20046;-53
2022/05/02 07:32:51;;;;;;;23.52;15.85;;;18.40;99.90;;;;;;5015203;28;20168;-53
2022/05/02 07:35:18;;;;;;;23.80;15.02;;;18.60;99.90;;;;;;5015110;28;20030;-53
2022/05/02 07:37:44;;;;;;;22.75;15.73;;;18.60;99.90;;;;;;5015111;28;20026;-53
2022/05/02 07:40:17;;;;;;;21.38;14.25;;;18.90;99.90;;;;;;5014917;28;20034;-53
2022/05/02 07:42:44;;;;;;;24.55;15.15;;;19.20;99.30;;;;;;5015055;28;20030;-53
2022/05/02 07:45:13;;;;;;;22.42;15.77;;;19.00;99.20;;;;;;5014838;28;20045;-53
2022/05/02 07:47:43;;;;;;;21.40;14.13;;;18.80;99.60;;;;;;5014872;28;20476;-53
2022/05/02 07:50:10;;;;;;;21.55;15.07;;;18.70;99.90;;;;;;5015311;28;20061;-53
2022/05/02 07:52:40;;;;;;;25.85;17.42;;;18.90;99.90;;;;;;5014980;28;20052;-53
2022/05/02 07:55:07;;;;;;;29.45;17.80;;;18.80;99.90;;;;;;5014979;28;20052;-53
2022/05/02 07:57:37;;;;;;;27.98;16.27;;;18.60;99.90;;;;;;5014893;28;20499;-53
2022/05/02 08:00:07;;;;;;;22.65;15.88;;;18.60;99.90;;;;;;5015168;28;20033;-53
2022/05/02 08:02:38;;;;;;;24.58;15.45;;;18.60;99.90;;;;;;5014936;28;20022;-53
2022/05/02 08:05:05;;;;;;;25.05;16.58;;;18.80;99.90;;;;;;5015099;28;20109;-53
2022/05/02 08:07:39;;;;;;;24.10;16.05;;;18.90;99.90;;;;;;5014702;28;20021;-53
2022/05/02 08:10:25;;;;;;;23.65;14.73;;;19.20;99.90;;;;;;5014854;28;20240;-53
2022/05/02 08:13:16;;;;;;;22.92;15.60;;;19.70;99.90;;;;;;5014609;28;20045;-53
2022/05/02 08:15:54;;;;;;;24.65;15.00;;;19.90;99.00;;;;;;5014623;28;20487;-53
2022/05/02 08:18:55;;;;;;;23.42;15.05;;;20.10;97.90;;;;;;5014751;28;20488;-53
2022/05/02 08:21:33;;;;;;;21.27;14.73;;;20.30;96.90;;;;;;4992605;28;20528;-53
2022/05/02 08:27:38;;;;;;;19.88;13.25;;;21.10;92.20;;;;;;4992509;28;20038;-53
2022/05/02 08:30:11;;;;;;;18.67;13.45;;;20.80;96.40;;;;;;4992346;28;20042;-53
2022/05/02 08:32:57;;;;;;;16.83;11.77;;;21.10;91.30;;;;;;4992604;28;20050;-53
2022/05/02 08:35:29;;;;;;;18.17;12.88;;;21.10;93.50;;;;;;4992271;28;20045;-53
2022/05/02 08:38:14;;;;;;;24.13;13.07;;;21.00;95.50;;;;;;4992419;28;20036;-53
2022/05/02 08:41:01;;;;;;;20.58;13.85;;;21.00;94.40;;;;;;4992432;28;20436;-53
2022/05/02 08:43:51;;;;;;;17.40;12.88;;;20.20;95.50;;;;;;4992443;28;20400;-53
2022/05/02 08:46:44;;;;;;;24.42;14.10;;;20.50;94.80;;;;;;4992409;28;20097;-53
2022/05/02 08:49:45;;;;;;;19.20;12.77;;;20.90;91.20;;;;;;4992204;28;20096;-53
2022/05/02 08:52:30;;;;;;;19.38;13.80;;;21.30;92.20;;;;;;4992155;28;20045;-53
2022/05/02 08:55:30;;;;;;;19.85;12.43;;;21.30;95.80;;;;;;4999144;28;20072;-53
2022/05/02 08:58:14;;;;;;;16.15;12.00;;;21.60;89.20;;;;;;5015663;28;20690;-53
2022/05/02 09:01:17;;;;;;;34.35;15.40;;;22.00;90.60;;;;;;5017920;28;20496;-53
2022/05/02 09:04:02;;;;;;;16.98;11.80;;;22.20;82.90;;;;;;5017915;28;20026;-53
2022/05/02 09:07:06;;;;;;;19.23;13.10;;;22.00;85.30;;;;;;5017942;28;20080;-53
2022/05/02 09:09:47;;;;;;;16.35;12.18;;;21.70;84.60;;;;;;5014421;28;20132;-53
2022/05/02 09:12:34;;;;;;;17.08;12.15;;;21.90;86.80;;;;;;5017700;28;20030;-53
2022/05/02 09:15:03;;;;;;;16.17;12.10;;;22.30;75.80;;;;;;5017598;28;20442;-53
2022/05/02 09:17:42;;;;;;;22.55;12.50;;;22.60;76.50;;;;;;5017660;28;20032;-53
2022/05/02 09:20:23;;;;;;;20.00;12.70;;;22.40;77.80;;;;;;5017560;28;20086;-53
2022/05/02 09:23:16;;;;;;;23.10;12.55;;;22.20;77.10;;;;;;5017621;28;20077;-53
2022/05/02 09:26:06;;;;;;;16.88;12.20;;;21.70;81.00;;;;;;5017476;28;20057;-53
2022/05/02 09:28:51;;;;;;;21.90;12.88;;;21.80;82.00;;;;;;5017669;28;20476;-53
2022/05/02 09:31:32;;;;;;;16.80;12.23;;;22.10;75.40;;;;;;5016093;28;20038;-53
2022/05/02 09:34:18;;;;;;;22.65;12.43;;;21.90;77.40;;;;;;5017304;28;20439;-53
2022/05/02 09:37:00;;;;;;;15.63;11.32;;;22.00;76.60;;;;;;5017223;28;20034;-53
2022/05/02 09:39:57;;;;;;;16.65;11.23;;;22.70;90.20;;;;;;5017264;28;20164;-53
2022/05/02 09:42:45;;;;;;;16.92;11.70;;;23.00;67.60;;;;;;5015329;28;20486;-53
2022/05/02 09:51:52;;;;;;;17.80;11.23;;;22.50;64.30;;;;;;5017010;28;20112;-53
2022/05/02 09:57:22;;;;;;;20.70;12.35;;;21.80;68.40;;;;;;5017010;28;20034;-53
2022/05/02 10:01:06;;;;;;;16.15;12.40;;;22.00;77.10;;;;;;5016867;28;20053;-53
2022/05/02 10:02:45;;;;;;;21.13;14.05;;;22.20;84.30;;;;;;5016698;28;20507;-53
2022/05/02 10:05:41;;;;;;;21.58;14.05;;;22.50;72.50;;;;;;5016841;28;20461;-53
2022/05/02 10:08:51;;;;;;;17.65;12.75;;;22.80;68.80;;;;;;5013487;28;20034;-53
2022/05/02 10:11:26;;;;;;;16.50;12.43;;;23.00;67.60;;;;;;4994237;28;20030;-53
2022/05/02 10:14:12;;;;;;;17.60;12.23;;;23.40;74.50;;;;;;4994579;28;20112;-53
2022/05/02 10:17:06;;;;;;;17.98;11.98;;;23.80;58.30;;;;;;4994384;28;20034;-53
2022/05/02 10:20:04;;;;;;;16.95;11.88;;;23.80;59.90;;;;;;4994426;28;20050;-53
2022/05/02 10:22:43;;;;;;;16.50;12.43;;;24.10;61.10;;;;;;4994395;28;20049;-53
2022/05/02 10:25:14;;;;;;;19.42;12.52;;;24.10;56.70;;;;;;4994366;28;20420;-53
2022/05/02 10:28:17;;;;;;;19.92;11.77;;;24.00;55.80;;;;;;4994376;28;20089;-53
2022/05/02 10:30:52;;;;;;;14.07;10.73;;;24.20;57.80;;;;;;4994062;28;20044;-53
2022/05/02 10:33:30;;;;;;;16.17;11.35;;;24.20;59.80;;;;;;4994325;28;20058;-53
2022/05/02 10:35:59;;;;;;;17.90;11.38;;;23.80;60.50;;;;;;4994186;28;20503;-53
2022/05/02 10:38:29;;;;;;;13.57;10.80;;;23.70;59.90;;;;;;4994052;28;20046;-53
2022/05/02 10:41:16;;;;;;;14.80;11.38;;;23.20;58.60;;;;;;4994049;28;20069;-53
2022/05/02 10:43:49;;;;;;;15.43;11.82;;;23.20;62.00;;;;;;4994080;28;20471;-53
2022/05/02 10:46:18;;;;;;;14.88;11.15;;;23.40;66.60;;;;;;5015075;28;20033;-53
2022/05/02 10:48:54;;;;;;;15.15;10.82;;;23.00;56.80;;;;;;5015896;28;20567;-53
2022/05/02 10:51:41;;;;;;;10.15;8.63;;;22.80;61.80;;;;;;5015900;28;20026;-53
2022/05/02 10:54:09;;;;;;;11.60;9.20;;;22.60;62.50;;;;;;5015993;28;20049;-53
2022/05/02 10:56:43;;;;;;;13.30;9.15;;;22.30;74.60;;;;;;5015944;28;20373;-53
2022/05/02 10:59:11;;;;;;;11.80;8.73;;;22.20;69.00;;;;;;5015632;28;20029;-53
2022/05/02 11:01:56;;;;;;;9.30;8.13;;;22.10;74.30;;;;;;5015764;28;20030;-53
2022/05/02 11:05:02;;;;;;;12.63;9.02;;;21.90;71.90;;;;;;5015743;28;20495;-53
2022/05/02 11:07:35;;;;;;;10.32;8.25;;;21.90;76.30;;;;;;5015444;28;20468;-53
2022/05/02 11:10:04;;;;;;;11.80;9.30;;;22.00;70.60;;;;;;5015613;28;20128;-53
2022/05/02 11:12:46;;;;;;;10.43;8.40;;;21.90;79.00;;;;;;5015576;28;20427;-53
2022/05/02 11:15:23;;;;;;;23.00;11.55;;;22.20;76.60;;;;;;5015405;28;20057;-53
2022/05/02 11:17:52;;;;;;;13.32;8.48;;;22.60;71.60;;;;;;5015447;28;20088;-53
2022/05/02 11:20:45;;;;;;;15.77;8.93;;;23.00;73.30;;;;;;5014865;28;20088;-53
2022/05/02 11:23:30;;;;;;;10.25;8.55;;;23.50;73.90;;;;;;5015412;28;20029;-53
2022/05/02 11:26:09;;;;;;;11.65;9.15;;;23.80;63.70;;;;;;5015277;28;20602;-53
2022/05/02 11:28:57;;;;;;;13.35;8.88;;;24.00;58.40;;;;;;5015049;28;20179;-54
2022/05/02 11:31:37;;;;;;;11.35;7.93;;;24.20;58.50;;;;;;5015318;28;20543;-53
2022/05/02 11:34:19;;;;;;;10.88;8.02;;;24.70;52.50;;;;;;5015188;28;20431;-53
2022/05/02 11:36:51;;;;;;;8.68;7.10;;;24.70;54.60;;;;;;5014986;28;20380;-53
2022/05/02 11:39:31;;;;;;;10.48;7.28;;;24.90;55.80;;;;;;5015153;28;20030;-53
2022/05/02 11:42:07;;;;;;;11.20;6.53;;;24.90;50.90;;;;;;5014966;28;20095;-53
2022/05/02 11:44:48;;;;;;;8.13;6.78;;;25.10;52.60;;;;;;5015063;28;20392;-53
2022/05/02 11:47:20;;;;;;;7.47;6.25;;;25.00;52.00;;;;;;5014912;28;20443;-53
2022/05/02 11:50:05;;;;;;;12.18;6.80;;;24.70;52.30;;;;;;5014868;28;20026;-53
2022/05/02 11:52:38;;;;;;;7.68;6.18;;;24.40;49.80;;;;;;5014947;28;20030;-53
2022/05/02 11:55:08;;;;;;;7.00;5.90;;;24.30;55.40;;;;;;5014866;28;20025;-53
2022/05/02 11:57:48;;;;;;;11.13;6.85;;;23.90;52.70;;;;;;5014800;28;20017;-53
2022/05/02 12:00:15;;;;;;;12.40;6.22;;;24.10;50.20;;;;;;5014700;28;20049;-53
2022/05/02 12:02:44;;;;;;;8.25;6.60;;;24.20;48.80;;;;;;5014820;28;20026;-53
2022/05/02 12:05:34;;;;;;;7.40;5.25;;;23.90;49.80;;;;;;5014735;28;20014;-53
2022/05/02 12:08:02;;;;;;;10.68;5.65;;;24.30;48.80;;;;;;5014727;28;20519;-53
2022/05/02 12:10:47;;;;;;;8.30;6.00;;;24.00;49.80;;;;;;5014778;28;20029;-53
2022/05/02 12:13:18;;;;;;;8.55;5.13;;;23.90;47.30;;;;;;5014657;28;20041;-53
2022/05/02 12:16:17;;;;;;;7.20;5.78;;;23.60;48.80;;;;;;5014614;28;20034;-53
2022/05/02 12:18:51;;;;;;;8.65;5.57;;;23.60;48.90;;;;;;4992146;28;20184;-53
2022/05/02 12:21:36;;;;;;;5.75;4.15;;;23.80;52.30;;;;;;5014529;28;20088;-53
2022/05/02 12:24:03;;;;;;;6.65;4.25;;;24.30;46.60;;;;;;5014537;28;20037;-53
2022/05/02 12:26:32;;;;;;;8.43;5.18;;;24.50;43.90;;;;;;5014584;28;20506;-53
2022/05/02 12:29:04;;;;;;;7.72;4.60;;;24.80;45.30;;;;;;5014487;28;20062;-53
2022/05/02 12:31:37;;;;;;;5.65;4.22;;;24.80;45.30;;;;;;5014514;28;20070;-53
2022/05/02 12:34:05;;;;;;;7.57;4.03;;;25.00;47.30;;;;;;5017760;28;20387;-53
2022/05/02 12:36:44;;;;;;;5.63;3.47;;;24.80;44.00;;;;;;5018457;28;20030;-53
2022/05/02 12:39:28;;;;;;;4.00;3.42;;;24.30;43.70;;;;;;5018204;28;20065;-53
2022/05/02 12:42:15;;;;;;;10.60;3.40;;;24.50;44.10;;;;;;5018320;28;20042;-53
2022/05/02 12:44:58;;;;;;;7.68;3.90;;;24.30;43.00;;;;;;5018335;28;20038;-53
2022/05/02 12:47:28;;;;;;;6.03;3.58;;;24.40;46.20;;;;;;5018054;28;20026;-53
2022/05/02 12:50:05;;;;;;;4.95;3.55;;;24.10;44.20;;;;;;5018233;28;20077;-53
2022/05/02 12:52:34;;;;;;;9.93;4.22;;;23.80;42.70;;;;;;5018136;28;20042;-53
2022/05/02 12:55:00;;;;;;;5.32;3.70;;;23.40;43.00;;;;;;5018266;28;20029;-53
2022/05/02 13:00:55;;;;;;;5.25;3.75;;;23.50;47.50;;;;;;5014203;28;20049;-53
2022/05/02 13:03:30;;;;;;;5.22;3.80;;;23.00;44.40;;;;;;5017947;28;20061;-53
2022/05/02 13:05:58;;;;;;;8.07;3.95;;;22.80;45.60;;;;;;5017937;28;20092;-53
2022/05/02 13:08:43;;;;;;;4.90;3.55;;;22.90;45.60;;;;;;5017761;28;20045;-53
2022/05/02 13:11:13;;;;;;;5.90;3.40;;;23.20;43.60;;;;;;5017779;28;20439;-53
2022/05/02 13:13:41;;;;;;;6.65;3.20;;;23.20;44.30;;;;;;5017935;28;20057;-53
2022/05/02 13:16:28;;;;;;;5.35;3.53;;;23.10;44.80;;;;;;5017762;28;20041;-53
2022/05/02 13:19:00;;;;;;;4.10;3.30;;;23.20;48.10;;;;;;5017576;28;20376;-53
2022/05/02 13:21:27;;;;;;;7.47;4.25;;;23.00;47.80;;;;;;5017550;28;20038;-53
2022/05/02 13:23:56;;;;;;;8.15;4.13;;;23.10;49.40;;;;;;5017647;28;20034;-53
2022/05/02 13:26:36;;;;;;;5.57;3.55;;;23.20;48.00;;;;;;5017504;28;20053;-53
2022/05/02 13:29:29;;;;;;;7.85;3.10;;;23.20;45.20;;;;;;5017285;28;20034;-53
2022/05/02 13:32:07;;;;;;;6.13;2.92;;;23.20;46.40;;;;;;5017464;28;20454;-53
2022/05/02 13:34:39;;;;;;;9.82;3.00;;;23.00;45.70;;;;;;5017237;28;20029;-53
2022/05/02 13:37:14;;;;;;;8.30;3.00;;;22.80;46.90;;;;;;5017246;28;20550;-53
2022/05/02 13:39:52;;;;;;;4.60;2.85;;;22.80;48.60;;;;;;5017240;28;20041;-53